sensor_id;sensor_type;location;lat;lon;timestamp;P1;durP1;ratioP1;P2;durP2;ratioP2
59239;SDS011;45010;53.640;10.578;2023-06-14T00:02:09;3.88;;;2.00;;
59239;SDS011;45010;53.640;10.578;2023-06-14T00:05:09;4.65;;;1.80;;
59239;SDS011;45010;53.640;10.578;2023-06-14T00:08:12;2.08;;;1.65;;
59239;SDS011;45010;53.640;10.578;2023-06-14T00:11:13;3.30;;;1.98;;
59239;SDS011;45010;53.640;10.578;2023-06-14T00:14:14;3.38;;;1.85;;
59239;SDS011;45010;53.640;10.578;2023-06-14T00:17:14;4.38;;;2.05;;
59239;SDS011;45010;53.640;10.578;2023-06-14T00:20:17;3.15;;;2.05;;
59239;SDS011;45010;53.640;10.578;2023-06-14T00:23:17;3.63;;;2.03;;
59239;SDS011;45010;53.640;10.578;2023-06-14T00:26:18;2.45;;;1.90;;
59239;SDS011;45010;53.640;10.578;2023-06-14T00:29:18;4.35;;;1.73;;
59239;SDS011;45010;53.640;10.578;2023-06-14T00:32:18;2.40;;;1.88;;
59239;SDS011;45010;53.640;10.578;2023-06-14T00:35:19;4.32;;;1.63;;
59239;SDS011;45010;53.640;10.578;2023-06-14T00:38:19;2.65;;;2.10;;
59239;SDS011;45010;53.640;10.578;2023-06-14T00:41:20;4.30;;;2.10;;
59239;SDS011;45010;53.640;10.578;2023-06-14T00:44:21;3.60;;;1.80;;
59239;SDS011;45010;53.640;10.578;2023-06-14T00:47:21;2.33;;;1.88;;
59239;SDS011;45010;53.640;10.578;2023-06-14T00:50:22;1.80;;;1.55;;
59239;SDS011;45010;53.640;10.578;2023-06-14T00:53:23;4.00;;;2.03;;
59239;SDS011;45010;53.640;10.578;2023-06-14T00:56:25;2.72;;;1.52;;
59239;SDS011;45010;53.640;10.578;2023-06-14T00:59:26;1.98;;;1.80;;
59239;SDS011;45010;53.640;10.578;2023-06-14T01:02:26;2.13;;;1.80;;
59239;SDS011;45010;53.640;10.578;2023-06-14T01:05:26;4.35;;;1.77;;
59239;SDS011;45010;53.640;10.578;2023-06-14T01:08:50;3.85;;;2.05;;
59239;SDS011;45010;53.640;10.578;2023-06-14T01:12:05;3.03;;;2.00;;
59239;SDS011;45010;53.640;10.578;2023-06-14T01:15:12;2.22;;;1.70;;
59239;SDS011;45010;53.640;10.578;2023-06-14T01:18:13;2.80;;;1.83;;
59239;SDS011;45010;53.640;10.578;2023-06-14T01:21:22;3.40;;;2.03;;
59239;SDS011;45010;53.640;10.578;2023-06-14T01:24:24;3.40;;;1.70;;
59239;SDS011;45010;53.640;10.578;2023-06-14T01:27:25;2.22;;;1.70;;
59239;SDS011;45010;53.640;10.578;2023-06-14T01:30:32;4.00;;;2.45;;
59239;SDS011;45010;53.640;10.578;2023-06-14T01:33:33;5.35;;;2.00;;
59239;SDS011;45010;53.640;10.578;2023-06-14T01:36:36;3.58;;;1.98;;
59239;SDS011;45010;53.640;10.578;2023-06-14T01:39:39;3.10;;;2.08;;
59239;SDS011;45010;53.640;10.578;2023-06-14T01:42:40;3.83;;;2.13;;
59239;SDS011;45010;53.640;10.578;2023-06-14T01:45:42;3.75;;;2.30;;
59239;SDS011;45010;53.640;10.578;2023-06-14T01:48:43;3.63;;;1.95;;
59239;SDS011;45010;53.640;10.578;2023-06-14T01:51:43;2.72;;;1.90;;
59239;SDS011;45010;53.640;10.578;2023-06-14T01:54:43;5.35;;;2.08;;
59239;SDS011;45010;53.640;10.578;2023-06-14T01:57:44;2.92;;;2.05;;
59239;SDS011;45010;53.640;10.578;2023-06-14T02:00:44;2.10;;;1.75;;
59239;SDS011;45010;53.640;10.578;2023-06-14T02:03:45;2.25;;;1.83;;
59239;SDS011;45010;53.640;10.578;2023-06-14T02:06:46;2.30;;;1.65;;
59239;SDS011;45010;53.640;10.578;2023-06-14T02:09:46;3.50;;;2.00;;
59239;SDS011;45010;53.640;10.578;2023-06-14T02:12:47;4.13;;;2.25;;
59239;SDS011;45010;53.640;10.578;2023-06-14T02:15:47;2.75;;;1.60;;
59239;SDS011;45010;53.640;10.578;2023-06-14T02:18:51;4.18;;;1.77;;
59239;SDS011;45010;53.640;10.578;2023-06-14T02:21:51;5.65;;;2.63;;
59239;SDS011;45010;53.640;10.578;2023-06-14T02:24:51;4.13;;;1.77;;
59239;SDS011;45010;53.640;10.578;2023-06-14T02:27:52;4.47;;;2.40;;
59239;SDS011;45010;53.640;10.578;2023-06-14T02:30:52;4.65;;;2.78;;
59239;SDS011;45010;53.640;10.578;2023-06-14T02:33:53;3.25;;;2.40;;
59239;SDS011;45010;53.640;10.578;2023-06-14T02:36:53;5.43;;;2.30;;
59239;SDS011;45010;53.640;10.578;2023-06-14T02:39:53;3.97;;;1.92;;
59239;SDS011;45010;53.640;10.578;2023-06-14T02:42:54;3.72;;;2.20;;
59239;SDS011;45010;53.640;10.578;2023-06-14T02:45:54;3.53;;;2.20;;
59239;SDS011;45010;53.640;10.578;2023-06-14T02:48:54;4.78;;;2.33;;
59239;SDS011;45010;53.640;10.578;2023-06-14T02:51:55;4.25;;;2.03;;
59239;SDS011;45010;53.640;10.578;2023-06-14T02:54:55;3.13;;;1.70;;
59239;SDS011;45010;53.640;10.578;2023-06-14T02:57:56;2.95;;;2.10;;
59239;SDS011;45010;53.640;10.578;2023-06-14T03:00:56;3.42;;;2.17;;
59239;SDS011;45010;53.640;10.578;2023-06-14T03:03:56;3.20;;;2.15;;
59239;SDS011;45010;53.640;10.578;2023-06-14T03:06:57;4.30;;;2.15;;
59239;SDS011;45010;53.640;10.578;2023-06-14T03:09:57;5.75;;;2.67;;
59239;SDS011;45010;53.640;10.578;2023-06-14T03:12:57;2.95;;;2.22;;
59239;SDS011;45010;53.640;10.578;2023-06-14T03:15:58;4.40;;;2.55;;
59239;SDS011;45010;53.640;10.578;2023-06-14T03:18:58;5.22;;;2.20;;
59239;SDS011;45010;53.640;10.578;2023-06-14T03:21:59;4.60;;;2.22;;
59239;SDS011;45010;53.640;10.578;2023-06-14T03:24:59;3.22;;;2.28;;
59239;SDS011;45010;53.640;10.578;2023-06-14T03:28:00;4.53;;;2.60;;
59239;SDS011;45010;53.640;10.578;2023-06-14T03:31:00;3.08;;;2.10;;
59239;SDS011;45010;53.640;10.578;2023-06-14T03:34:01;5.35;;;2.10;;
59239;SDS011;45010;53.640;10.578;2023-06-14T03:37:02;7.00;;;2.13;;
59239;SDS011;45010;53.640;10.578;2023-06-14T03:40:02;3.05;;;2.30;;
59239;SDS011;45010;53.640;10.578;2023-06-14T03:43:06;3.30;;;2.33;;
59239;SDS011;45010;53.640;10.578;2023-06-14T03:46:06;4.13;;;2.35;;
59239;SDS011;45010;53.640;10.578;2023-06-14T03:49:06;6.32;;;2.75;;
59239;SDS011;45010;53.640;10.578;2023-06-14T03:52:07;3.90;;;2.67;;
59239;SDS011;45010;53.640;10.578;2023-06-14T03:55:07;2.70;;;2.40;;
59239;SDS011;45010;53.640;10.578;2023-06-14T03:58:08;3.60;;;2.40;;
59239;SDS011;45010;53.640;10.578;2023-06-14T04:01:08;4.00;;;2.88;;
59239;SDS011;45010;53.640;10.578;2023-06-14T04:04:09;3.63;;;1.90;;
59239;SDS011;45010;53.640;10.578;2023-06-14T04:07:10;5.55;;;2.60;;
59239;SDS011;45010;53.640;10.578;2023-06-14T04:10:13;5.43;;;2.53;;
59239;SDS011;45010;53.640;10.578;2023-06-14T04:13:13;4.57;;;2.50;;
59239;SDS011;45010;53.640;10.578;2023-06-14T04:16:14;4.97;;;2.80;;
59239;SDS011;45010;53.640;10.578;2023-06-14T04:19:15;4.32;;;2.78;;
59239;SDS011;45010;53.640;10.578;2023-06-14T04:22:16;3.22;;;2.20;;
59239;SDS011;45010;53.640;10.578;2023-06-14T04:25:16;4.53;;;2.70;;
59239;SDS011;45010;53.640;10.578;2023-06-14T04:28:16;4.70;;;2.38;;
59239;SDS011;45010;53.640;10.578;2023-06-14T04:31:18;4.72;;;2.30;;
59239;SDS011;45010;53.640;10.578;2023-06-14T04:34:19;3.47;;;2.65;;
59239;SDS011;45010;53.640;10.578;2023-06-14T04:37:19;4.88;;;2.40;;
59239;SDS011;45010;53.640;10.578;2023-06-14T04:40:22;4.93;;;2.65;;
59239;SDS011;45010;53.640;10.578;2023-06-14T04:43:23;3.15;;;2.30;;
59239;SDS011;45010;53.640;10.578;2023-06-14T04:46:25;4.53;;;2.70;;
59239;SDS011;45010;53.640;10.578;2023-06-14T04:49:28;3.20;;;2.22;;
59239;SDS011;45010;53.640;10.578;2023-06-14T04:52:32;5.68;;;2.45;;
59239;SDS011;45010;53.640;10.578;2023-06-14T04:55:32;3.80;;;2.42;;
59239;SDS011;45010;53.640;10.578;2023-06-14T04:58:33;6.03;;;2.72;;
59239;SDS011;45010;53.640;10.578;2023-06-14T05:01:33;6.57;;;2.67;;
59239;SDS011;45010;53.640;10.578;2023-06-14T05:04:34;6.57;;;3.20;;
59239;SDS011;45010;53.640;10.578;2023-06-14T05:07:34;5.03;;;2.58;;
59239;SDS011;45010;53.640;10.578;2023-06-14T05:10:34;4.63;;;2.40;;
59239;SDS011;45010;53.640;10.578;2023-06-14T05:13:36;5.78;;;2.75;;
59239;SDS011;45010;53.640;10.578;2023-06-14T05:16:36;8.35;;;2.75;;
59239;SDS011;45010;53.640;10.578;2023-06-14T05:19:36;2.97;;;2.08;;
59239;SDS011;45010;53.640;10.578;2023-06-14T05:22:37;3.38;;;2.42;;
59239;SDS011;45010;53.640;10.578;2023-06-14T05:25:37;3.97;;;2.60;;
59239;SDS011;45010;53.640;10.578;2023-06-14T05:28:37;4.32;;;2.58;;
59239;SDS011;45010;53.640;10.578;2023-06-14T05:31:38;5.03;;;2.25;;
59239;SDS011;45010;53.640;10.578;2023-06-14T05:34:38;6.13;;;3.20;;
59239;SDS011;45010;53.640;10.578;2023-06-14T05:37:38;3.92;;;2.30;;
59239;SDS011;45010;53.640;10.578;2023-06-14T05:40:39;2.95;;;2.47;;
59239;SDS011;45010;53.640;10.578;2023-06-14T05:43:39;5.10;;;2.63;;
59239;SDS011;45010;53.640;10.578;2023-06-14T05:46:39;3.67;;;2.40;;
59239;SDS011;45010;53.640;10.578;2023-06-14T05:49:41;4.13;;;2.50;;
59239;SDS011;45010;53.640;10.578;2023-06-14T05:52:41;4.55;;;2.80;;
59239;SDS011;45010;53.640;10.578;2023-06-14T05:55:41;4.53;;;2.50;;
59239;SDS011;45010;53.640;10.578;2023-06-14T05:58:41;3.83;;;2.40;;
59239;SDS011;45010;53.640;10.578;2023-06-14T06:01:42;4.32;;;2.55;;
59239;SDS011;45010;53.640;10.578;2023-06-14T06:04:42;6.72;;;2.92;;
59239;SDS011;45010;53.640;10.578;2023-06-14T06:07:42;3.55;;;2.45;;
59239;SDS011;45010;53.640;10.578;2023-06-14T06:10:45;5.22;;;2.28;;
59239;SDS011;45010;53.640;10.578;2023-06-14T06:13:45;4.53;;;2.90;;
59239;SDS011;45010;53.640;10.578;2023-06-14T06:16:46;4.32;;;2.85;;
59239;SDS011;45010;53.640;10.578;2023-06-14T06:19:46;4.70;;;2.45;;
59239;SDS011;45010;53.640;10.578;2023-06-14T06:22:46;4.90;;;2.90;;
59239;SDS011;45010;53.640;10.578;2023-06-14T06:25:47;6.53;;;2.97;;
59239;SDS011;45010;53.640;10.578;2023-06-14T06:28:47;4.47;;;3.03;;
59239;SDS011;45010;53.640;10.578;2023-06-14T06:31:48;5.47;;;3.17;;
59239;SDS011;45010;53.640;10.578;2023-06-14T06:34:48;4.22;;;2.83;;
59239;SDS011;45010;53.640;10.578;2023-06-14T06:37:48;3.22;;;2.67;;
59239;SDS011;45010;53.640;10.578;2023-06-14T06:40:49;3.75;;;2.80;;
59239;SDS011;45010;53.640;10.578;2023-06-14T06:43:49;3.80;;;2.67;;
59239;SDS011;45010;53.640;10.578;2023-06-14T06:46:50;3.70;;;2.63;;
59239;SDS011;45010;53.640;10.578;2023-06-14T06:49:50;4.43;;;2.63;;
59239;SDS011;45010;53.640;10.578;2023-06-14T06:52:51;4.43;;;2.50;;
59239;SDS011;45010;53.640;10.578;2023-06-14T06:55:51;3.60;;;2.22;;
59239;SDS011;45010;53.640;10.578;2023-06-14T06:58:51;5.30;;;2.70;;
59239;SDS011;45010;53.640;10.578;2023-06-14T07:01:52;6.47;;;2.50;;
59239;SDS011;45010;53.640;10.578;2023-06-14T07:04:52;4.13;;;2.60;;
59239;SDS011;45010;53.640;10.578;2023-06-14T07:07:52;3.25;;;2.30;;
59239;SDS011;45010;53.640;10.578;2023-06-14T07:10:52;3.67;;;2.65;;
59239;SDS011;45010;53.640;10.578;2023-06-14T07:13:53;6.30;;;2.40;;
59239;SDS011;45010;53.640;10.578;2023-06-14T07:16:53;6.40;;;3.00;;
59239;SDS011;45010;53.640;10.578;2023-06-14T07:19:53;5.35;;;2.55;;
59239;SDS011;45010;53.640;10.578;2023-06-14T07:22:54;3.60;;;2.42;;
59239;SDS011;45010;53.640;10.578;2023-06-14T07:25:54;4.40;;;2.40;;
59239;SDS011;45010;53.640;10.578;2023-06-14T07:28:54;3.33;;;2.72;;
59239;SDS011;45010;53.640;10.578;2023-06-14T07:31:55;3.08;;;2.38;;
59239;SDS011;45010;53.640;10.578;2023-06-14T07:34:55;5.30;;;2.50;;
59239;SDS011;45010;53.640;10.578;2023-06-14T07:37:55;4.38;;;2.40;;
59239;SDS011;45010;53.640;10.578;2023-06-14T07:40:56;7.10;;;2.88;;
59239;SDS011;45010;53.640;10.578;2023-06-14T07:43:56;5.53;;;2.35;;
59239;SDS011;45010;53.640;10.578;2023-06-14T07:46:56;5.20;;;2.92;;
59239;SDS011;45010;53.640;10.578;2023-06-14T07:49:59;5.80;;;2.30;;
59239;SDS011;45010;53.640;10.578;2023-06-14T07:52:59;5.35;;;2.83;;
59239;SDS011;45010;53.640;10.578;2023-06-14T07:55:59;10.65;;;2.90;;
59239;SDS011;45010;53.640;10.578;2023-06-14T07:59:00;5.80;;;2.28;;
59239;SDS011;45010;53.640;10.578;2023-06-14T08:02:00;5.43;;;2.20;;
59239;SDS011;45010;53.640;10.578;2023-06-14T08:05:01;2.92;;;2.58;;
59239;SDS011;45010;53.640;10.578;2023-06-14T08:08:02;6.03;;;2.40;;
59239;SDS011;45010;53.640;10.578;2023-06-14T08:11:02;8.55;;;2.55;;
59239;SDS011;45010;53.640;10.578;2023-06-14T08:14:02;4.78;;;2.30;;
59239;SDS011;45010;53.640;10.578;2023-06-14T08:17:03;4.93;;;2.38;;
59239;SDS011;45010;53.640;10.578;2023-06-14T08:20:03;4.07;;;2.13;;
59239;SDS011;45010;53.640;10.578;2023-06-14T08:23:05;3.97;;;2.15;;
59239;SDS011;45010;53.640;10.578;2023-06-14T08:26:06;5.82;;;2.28;;
59239;SDS011;45010;53.640;10.578;2023-06-14T08:29:06;4.65;;;2.47;;
59239;SDS011;45010;53.640;10.578;2023-06-14T08:32:06;3.90;;;2.20;;
59239;SDS011;45010;53.640;10.578;2023-06-14T08:35:07;4.22;;;1.83;;
59239;SDS011;45010;53.640;10.578;2023-06-14T08:38:09;5.50;;;2.60;;
59239;SDS011;45010;53.640;10.578;2023-06-14T08:41:11;7.35;;;2.47;;
59239;SDS011;45010;53.640;10.578;2023-06-14T08:44:15;3.30;;;2.00;;
59239;SDS011;45010;53.640;10.578;2023-06-14T08:47:16;8.02;;;2.65;;
59239;SDS011;45010;53.640;10.578;2023-06-14T08:50:19;5.95;;;2.83;;
59239;SDS011;45010;53.640;10.578;2023-06-14T08:53:21;5.78;;;2.55;;
59239;SDS011;45010;53.640;10.578;2023-06-14T08:56:25;5.13;;;2.22;;
59239;SDS011;45010;53.640;10.578;2023-06-14T08:59:26;6.22;;;2.35;;
59239;SDS011;45010;53.640;10.578;2023-06-14T09:02:27;5.75;;;2.25;;
59239;SDS011;45010;53.640;10.578;2023-06-14T09:05:27;6.97;;;2.60;;
59239;SDS011;45010;53.640;10.578;2023-06-14T09:08:28;5.70;;;2.53;;
59239;SDS011;45010;53.640;10.578;2023-06-14T09:11:30;4.03;;;2.20;;
59239;SDS011;45010;53.640;10.578;2023-06-14T09:14:30;4.32;;;2.50;;
59239;SDS011;45010;53.640;10.578;2023-06-14T09:17:40;6.15;;;2.30;;
59239;SDS011;45010;53.640;10.578;2023-06-14T09:20:41;4.47;;;2.33;;
59239;SDS011;45010;53.640;10.578;2023-06-14T09:23:45;8.45;;;2.58;;
59239;SDS011;45010;53.640;10.578;2023-06-14T09:26:47;3.55;;;2.10;;
59239;SDS011;45010;53.640;10.578;2023-06-14T09:29:47;5.60;;;2.13;;
59239;SDS011;45010;53.640;10.578;2023-06-14T09:32:48;5.25;;;2.20;;
59239;SDS011;45010;53.640;10.578;2023-06-14T09:35:51;4.25;;;2.55;;
59239;SDS011;45010;53.640;10.578;2023-06-14T09:38:59;4.50;;;2.63;;
59239;SDS011;45010;53.640;10.578;2023-06-14T09:42:16;5.15;;;2.25;;
59239;SDS011;45010;53.640;10.578;2023-06-14T09:45:18;4.25;;;1.98;;
59239;SDS011;45010;53.640;10.578;2023-06-14T09:48:21;4.43;;;2.25;;
59239;SDS011;45010;53.640;10.578;2023-06-14T09:51:22;4.45;;;2.45;;
59239;SDS011;45010;53.640;10.578;2023-06-14T09:54:23;5.65;;;2.40;;
59239;SDS011;45010;53.640;10.578;2023-06-14T09:57:26;4.93;;;2.40;;
59239;SDS011;45010;53.640;10.578;2023-06-14T10:00:29;3.85;;;2.38;;
59239;SDS011;45010;53.640;10.578;2023-06-14T10:03:33;3.25;;;2.10;;
59239;SDS011;45010;53.640;10.578;2023-06-14T10:06:35;5.80;;;2.17;;
59239;SDS011;45010;53.640;10.578;2023-06-14T10:09:37;2.63;;;2.20;;
59239;SDS011;45010;53.640;10.578;2023-06-14T10:12:39;5.55;;;2.30;;
59239;SDS011;45010;53.640;10.578;2023-06-14T10:19:00;3.50;;;2.00;;
59239;SDS011;45010;53.640;10.578;2023-06-14T10:22:09;5.55;;;2.40;;
59239;SDS011;45010;53.640;10.578;2023-06-14T10:25:13;4.20;;;2.30;;
59239;SDS011;45010;53.640;10.578;2023-06-14T10:28:26;5.82;;;1.90;;
59239;SDS011;45010;53.640;10.578;2023-06-14T10:31:40;9.80;;;2.10;;
59239;SDS011;45010;53.640;10.578;2023-06-14T10:34:44;5.18;;;2.20;;
59239;SDS011;45010;53.640;10.578;2023-06-14T10:37:46;4.10;;;1.83;;
59239;SDS011;45010;53.640;10.578;2023-06-14T10:40:51;3.53;;;2.20;;
59239;SDS011;45010;53.640;10.578;2023-06-14T10:43:52;6.50;;;2.72;;
59239;SDS011;45010;53.640;10.578;2023-06-14T10:46:53;7.85;;;1.92;;
59239;SDS011;45010;53.640;10.578;2023-06-14T10:52:55;6.10;;;2.75;;
59239;SDS011;45010;53.640;10.578;2023-06-14T10:55:56;5.20;;;1.95;;
59239;SDS011;45010;53.640;10.578;2023-06-14T10:58:57;7.78;;;2.20;;
59239;SDS011;45010;53.640;10.578;2023-06-14T11:05:28;6.80;;;2.40;;
59239;SDS011;45010;53.640;10.578;2023-06-14T11:12:09;5.50;;;2.22;;
59239;SDS011;45010;53.640;10.578;2023-06-14T11:15:11;5.18;;;2.00;;
59239;SDS011;45010;53.640;10.578;2023-06-14T11:18:13;11.57;;;2.53;;
59239;SDS011;45010;53.640;10.578;2023-06-14T11:21:17;10.55;;;3.28;;
59239;SDS011;45010;53.640;10.578;2023-06-14T11:24:20;16.42;;;3.00;;
59239;SDS011;45010;53.640;10.578;2023-06-14T11:27:21;13.45;;;3.30;;
59239;SDS011;45010;53.640;10.578;2023-06-14T11:30:21;7.80;;;2.83;;
59239;SDS011;45010;53.640;10.578;2023-06-14T11:33:22;10.70;;;3.42;;
59239;SDS011;45010;53.640;10.578;2023-06-14T11:36:33;11.38;;;3.75;;
59239;SDS011;45010;53.640;10.578;2023-06-14T11:39:33;8.57;;;2.80;;
59239;SDS011;45010;53.640;10.578;2023-06-14T11:42:34;9.82;;;2.60;;
59239;SDS011;45010;53.640;10.578;2023-06-14T11:45:34;14.30;;;3.47;;
59239;SDS011;45010;53.640;10.578;2023-06-14T11:48:41;10.80;;;3.20;;
59239;SDS011;45010;53.640;10.578;2023-06-14T11:51:42;12.57;;;3.08;;
59239;SDS011;45010;53.640;10.578;2023-06-14T11:54:42;12.38;;;3.10;;
59239;SDS011;45010;53.640;10.578;2023-06-14T11:57:46;13.45;;;4.07;;
59239;SDS011;45010;53.640;10.578;2023-06-14T12:00:48;13.52;;;3.38;;
59239;SDS011;45010;53.640;10.578;2023-06-14T12:03:49;9.60;;;2.90;;
59239;SDS011;45010;53.640;10.578;2023-06-14T12:06:50;12.20;;;3.05;;
59239;SDS011;45010;53.640;10.578;2023-06-14T12:12:56;6.47;;;2.90;;
59239;SDS011;45010;53.640;10.578;2023-06-14T12:15:58;13.10;;;2.88;;
59239;SDS011;45010;53.640;10.578;2023-06-14T12:19:15;11.43;;;2.80;;
59239;SDS011;45010;53.640;10.578;2023-06-14T12:22:16;6.55;;;3.15;;
59239;SDS011;45010;53.640;10.578;2023-06-14T12:25:26;5.10;;;2.50;;
59239;SDS011;45010;53.640;10.578;2023-06-14T12:28:30;6.50;;;2.55;;
59239;SDS011;45010;53.640;10.578;2023-06-14T12:31:31;11.10;;;2.60;;
59239;SDS011;45010;53.640;10.578;2023-06-14T12:34:31;7.47;;;3.00;;
59239;SDS011;45010;53.640;10.578;2023-06-14T12:37:32;8.30;;;2.72;;
59239;SDS011;45010;53.640;10.578;2023-06-14T12:40:32;7.68;;;3.22;;
59239;SDS011;45010;53.640;10.578;2023-06-14T12:43:33;9.02;;;2.50;;
59239;SDS011;45010;53.640;10.578;2023-06-14T12:46:34;8.13;;;3.00;;
59239;SDS011;45010;53.640;10.578;2023-06-14T12:49:34;5.60;;;2.58;;
59239;SDS011;45010;53.640;10.578;2023-06-14T12:52:35;9.25;;;2.97;;
59239;SDS011;45010;53.640;10.578;2023-06-14T12:55:38;7.97;;;2.38;;
59239;SDS011;45010;53.640;10.578;2023-06-14T12:58:39;8.60;;;2.83;;
59239;SDS011;45010;53.640;10.578;2023-06-14T13:01:39;7.05;;;2.67;;
59239;SDS011;45010;53.640;10.578;2023-06-14T13:04:40;6.82;;;2.58;;
59239;SDS011;45010;53.640;10.578;2023-06-14T13:07:40;5.93;;;2.70;;
59239;SDS011;45010;53.640;10.578;2023-06-14T13:10:41;6.10;;;2.55;;
59239;SDS011;45010;53.640;10.578;2023-06-14T13:13:41;7.93;;;2.88;;
59239;SDS011;45010;53.640;10.578;2023-06-14T13:16:42;6.90;;;2.88;;
59239;SDS011;45010;53.640;10.578;2023-06-14T13:19:42;5.40;;;2.35;;
59239;SDS011;45010;53.640;10.578;2023-06-14T13:22:42;7.13;;;2.80;;
59239;SDS011;45010;53.640;10.578;2023-06-14T13:25:43;6.40;;;2.50;;
59239;SDS011;45010;53.640;10.578;2023-06-14T13:28:43;6.65;;;2.60;;
59239;SDS011;45010;53.640;10.578;2023-06-14T13:31:44;9.93;;;2.20;;
59239;SDS011;45010;53.640;10.578;2023-06-14T13:34:45;7.60;;;3.00;;
59239;SDS011;45010;53.640;10.578;2023-06-14T13:37:45;5.82;;;2.42;;
59239;SDS011;45010;53.640;10.578;2023-06-14T13:40:45;6.47;;;3.20;;
59239;SDS011;45010;53.640;10.578;2023-06-14T13:43:46;6.03;;;2.72;;
59239;SDS011;45010;53.640;10.578;2023-06-14T13:46:46;7.20;;;2.38;;
59239;SDS011;45010;53.640;10.578;2023-06-14T13:49:47;4.50;;;2.25;;
59239;SDS011;45010;53.640;10.578;2023-06-14T13:52:47;7.50;;;2.95;;
59239;SDS011;45010;53.640;10.578;2023-06-14T13:55:48;6.18;;;3.20;;
59239;SDS011;45010;53.640;10.578;2023-06-14T13:58:48;7.90;;;2.50;;
59239;SDS011;45010;53.640;10.578;2023-06-14T14:01:48;5.97;;;2.15;;
59239;SDS011;45010;53.640;10.578;2023-06-14T14:04:49;4.70;;;2.10;;
59239;SDS011;45010;53.640;10.578;2023-06-14T14:07:53;4.90;;;2.13;;
59239;SDS011;45010;53.640;10.578;2023-06-14T14:10:54;5.60;;;2.13;;
59239;SDS011;45010;53.640;10.578;2023-06-14T14:13:55;8.38;;;2.38;;
59239;SDS011;45010;53.640;10.578;2023-06-14T14:16:58;8.25;;;2.58;;
59239;SDS011;45010;53.640;10.578;2023-06-14T14:19:58;6.57;;;2.88;;
59239;SDS011;45010;53.640;10.578;2023-06-14T14:22:59;5.75;;;2.53;;
59239;SDS011;45010;53.640;10.578;2023-06-14T14:25:59;6.30;;;2.38;;
59239;SDS011;45010;53.640;10.578;2023-06-14T14:29:03;6.03;;;2.65;;
59239;SDS011;45010;53.640;10.578;2023-06-14T14:32:03;9.48;;;2.90;;
59239;SDS011;45010;53.640;10.578;2023-06-14T14:35:04;6.47;;;2.65;;
59239;SDS011;45010;53.640;10.578;2023-06-14T14:38:06;9.65;;;2.47;;
59239;SDS011;45010;53.640;10.578;2023-06-14T14:41:06;5.43;;;2.33;;
59239;SDS011;45010;53.640;10.578;2023-06-14T14:44:06;8.40;;;2.88;;
59239;SDS011;45010;53.640;10.578;2023-06-14T14:47:07;5.80;;;2.55;;
59239;SDS011;45010;53.640;10.578;2023-06-14T14:50:07;5.65;;;1.95;;
59239;SDS011;45010;53.640;10.578;2023-06-14T14:53:09;11.00;;;2.45;;
59239;SDS011;45010;53.640;10.578;2023-06-14T14:56:09;7.22;;;2.28;;
59239;SDS011;45010;53.640;10.578;2023-06-14T14:59:09;9.32;;;2.40;;
59239;SDS011;45010;53.640;10.578;2023-06-14T15:02:10;8.82;;;2.45;;
59239;SDS011;45010;53.640;10.578;2023-06-14T15:05:10;7.22;;;2.58;;
59239;SDS011;45010;53.640;10.578;2023-06-14T15:08:10;4.38;;;2.05;;
59239;SDS011;45010;53.640;10.578;2023-06-14T15:11:11;6.82;;;2.53;;
59239;SDS011;45010;53.640;10.578;2023-06-14T15:14:12;8.55;;;2.53;;
59239;SDS011;45010;53.640;10.578;2023-06-14T15:17:12;11.48;;;3.33;;
59239;SDS011;45010;53.640;10.578;2023-06-14T15:20:12;6.60;;;2.38;;
59239;SDS011;45010;53.640;10.578;2023-06-14T15:23:13;6.45;;;3.10;;
59239;SDS011;45010;53.640;10.578;2023-06-14T15:26:19;5.60;;;2.97;;
59239;SDS011;45010;53.640;10.578;2023-06-14T15:29:20;9.88;;;2.53;;
59239;SDS011;45010;53.640;10.578;2023-06-14T15:32:20;5.82;;;2.38;;
59239;SDS011;45010;53.640;10.578;2023-06-14T15:35:21;7.70;;;2.30;;
59239;SDS011;45010;53.640;10.578;2023-06-14T15:38:22;5.65;;;2.03;;
59239;SDS011;45010;53.640;10.578;2023-06-14T15:41:22;4.75;;;2.10;;
59239;SDS011;45010;53.640;10.578;2023-06-14T15:44:23;5.07;;;2.28;;
59239;SDS011;45010;53.640;10.578;2023-06-14T15:47:23;3.03;;;2.20;;
59239;SDS011;45010;53.640;10.578;2023-06-14T15:50:24;6.15;;;2.10;;
59239;SDS011;45010;53.640;10.578;2023-06-14T15:53:24;6.82;;;2.08;;
59239;SDS011;45010;53.640;10.578;2023-06-14T15:56:25;4.57;;;2.28;;
59239;SDS011;45010;53.640;10.578;2023-06-14T15:59:25;4.18;;;2.08;;
59239;SDS011;45010;53.640;10.578;2023-06-14T16:02:28;3.50;;;1.90;;
59239;SDS011;45010;53.640;10.578;2023-06-14T16:05:28;5.72;;;2.42;;
59239;SDS011;45010;53.640;10.578;2023-06-14T16:08:29;4.32;;;2.00;;
59239;SDS011;45010;53.640;10.578;2023-06-14T16:11:29;6.53;;;2.30;;
59239;SDS011;45010;53.640;10.578;2023-06-14T16:14:29;5.53;;;1.92;;
59239;SDS011;45010;53.640;10.578;2023-06-14T16:17:29;4.47;;;1.98;;
59239;SDS011;45010;53.640;10.578;2023-06-14T16:20:30;4.65;;;2.08;;
59239;SDS011;45010;53.640;10.578;2023-06-14T16:23:30;5.00;;;1.90;;
59239;SDS011;45010;53.640;10.578;2023-06-14T16:26:30;3.15;;;1.90;;
59239;SDS011;45010;53.640;10.578;2023-06-14T16:29:31;6.25;;;2.35;;
59239;SDS011;45010;53.640;10.578;2023-06-14T16:32:32;3.17;;;2.00;;
59239;SDS011;45010;53.640;10.578;2023-06-14T16:35:32;4.93;;;1.90;;
59239;SDS011;45010;53.640;10.578;2023-06-14T16:38:33;4.32;;;1.98;;
59239;SDS011;45010;53.640;10.578;2023-06-14T16:41:33;3.50;;;2.00;;
59239;SDS011;45010;53.640;10.578;2023-06-14T16:44:33;4.05;;;1.70;;
59239;SDS011;45010;53.640;10.578;2023-06-14T16:47:34;4.53;;;2.10;;
59239;SDS011;45010;53.640;10.578;2023-06-14T16:50:34;2.92;;;2.10;;
59239;SDS011;45010;53.640;10.578;2023-06-14T16:53:34;2.75;;;1.65;;
59239;SDS011;45010;53.640;10.578;2023-06-14T16:56:35;4.63;;;2.05;;
59239;SDS011;45010;53.640;10.578;2023-06-14T16:59:35;4.40;;;1.75;;
59239;SDS011;45010;53.640;10.578;2023-06-14T17:02:35;5.20;;;1.70;;
59239;SDS011;45010;53.640;10.578;2023-06-14T17:05:36;3.55;;;1.85;;
59239;SDS011;45010;53.640;10.578;2023-06-14T17:08:39;4.55;;;2.10;;
59239;SDS011;45010;53.640;10.578;2023-06-14T17:11:39;5.18;;;2.03;;
59239;SDS011;45010;53.640;10.578;2023-06-14T17:14:39;3.83;;;2.20;;
59239;SDS011;45010;53.640;10.578;2023-06-14T17:17:41;2.95;;;1.73;;
59239;SDS011;45010;53.640;10.578;2023-06-14T17:20:41;6.05;;;2.15;;
59239;SDS011;45010;53.640;10.578;2023-06-14T17:23:42;3.05;;;2.20;;
59239;SDS011;45010;53.640;10.578;2023-06-14T17:26:42;9.23;;;2.83;;
59239;SDS011;45010;53.640;10.578;2023-06-14T17:29:42;2.47;;;1.65;;
59239;SDS011;45010;53.640;10.578;2023-06-14T17:32:43;3.28;;;1.75;;
59239;SDS011;45010;53.640;10.578;2023-06-14T17:35:43;3.55;;;1.75;;
59239;SDS011;45010;53.640;10.578;2023-06-14T17:38:43;6.93;;;2.53;;
59239;SDS011;45010;53.640;10.578;2023-06-14T17:41:44;3.70;;;1.83;;
59239;SDS011;45010;53.640;10.578;2023-06-14T17:44:44;2.47;;;1.88;;
59239;SDS011;45010;53.640;10.578;2023-06-14T17:47:44;3.78;;;2.08;;
59239;SDS011;45010;53.640;10.578;2023-06-14T17:50:45;7.72;;;2.35;;
59239;SDS011;45010;53.640;10.578;2023-06-14T17:53:45;6.10;;;2.65;;
59239;SDS011;45010;53.640;10.578;2023-06-14T17:56:46;3.92;;;2.20;;
59239;SDS011;45010;53.640;10.578;2023-06-14T17:59:47;3.35;;;1.90;;
59239;SDS011;45010;53.640;10.578;2023-06-14T18:02:48;3.38;;;1.83;;
59239;SDS011;45010;53.640;10.578;2023-06-14T18:05:48;3.80;;;1.50;;
59239;SDS011;45010;53.640;10.578;2023-06-14T18:08:49;4.63;;;1.95;;
59239;SDS011;45010;53.640;10.578;2023-06-14T18:11:49;3.85;;;1.75;;